createdAt,value
2018-07-20T00:00:11.155Z,38.82
2018-07-20T00:01:11.265Z,38.82
2018-07-20T00:02:11.286Z,39.12
2018-07-20T00:03:11.137Z,38.92
2018-07-20T00:04:11.160Z,39.12
2018-07-20T00:05:11.230Z,38.92
2018-07-20T00:06:11.123Z,38.73
2018-07-20T00:07:11.203Z,38.92
2018-07-20T00:08:11.133Z,38.73
2018-07-20T00:09:11.073Z,38.73
2018-07-20T00:10:11.051Z,38.92
2018-07-20T00:11:11.164Z,38.53
2018-07-20T00:12:11.038Z,38.43
2018-07-20T00:13:11.020Z,38.82
2018-07-20T00:14:11.020Z,38.55
2018-07-20T00:15:11.132Z,38.53
2018-07-20T00:16:11.002Z,38.84
2018-07-20T00:17:10.973Z,38.73
2018-07-20T00:18:10.964Z,38.55
2018-07-20T00:19:10.964Z,38.75
2018-07-20T00:20:11.080Z,38.43
2018-07-20T00:21:10.936Z,38.45
2018-07-20T00:22:10.989Z,38.55
2018-07-20T00:23:10.932Z,38.63
2018-07-20T00:24:10.930Z,38.63
2018-07-20T00:25:10.988Z,38.45
2018-07-20T00:26:10.898Z,38.65
2018-07-20T00:27:10.933Z,38.65
2018-07-20T00:28:10.855Z,38.75
2018-07-20T00:29:10.856Z,38.45
2018-07-20T00:30:11.290Z,38.75
2018-07-20T00:31:11.966Z,38.55
2018-07-20T00:32:10.930Z,38.45
2018-07-20T00:33:10.899Z,38.55
2018-07-20T00:34:10.810Z,38.65
2018-07-20T00:35:10.798Z,38.45
2018-07-20T00:36:10.775Z,38.45
2018-07-20T00:37:10.778Z,38.65
2018-07-20T00:38:10.761Z,38.65
2018-07-20T00:39:10.758Z,38.65
2018-07-20T00:40:10.805Z,38.65
2018-07-20T00:41:10.756Z,38.45
2018-07-20T00:42:10.707Z,38.55
2018-07-20T00:43:10.713Z,38.43
2018-07-20T00:44:10.707Z,38.65
2018-07-20T00:45:10.687Z,38.55
2018-07-20T00:46:10.665Z,38.65
2018-07-20T00:47:10.651Z,38.75
2018-07-20T00:48:10.802Z,38.65
2018-07-20T00:49:10.645Z,38.65
2018-07-20T00:50:10.640Z,38.55
2018-07-20T00:51:10.620Z,38.75
2018-07-20T00:52:10.998Z,38.45
2018-07-20T00:53:10.605Z,38.65
2018-07-20T00:54:10.592Z,38.65
2018-07-20T00:55:10.774Z,38.45
2018-07-20T00:56:10.566Z,38.75
2018-07-20T00:57:10.559Z,38.75
2018-07-20T00:58:10.557Z,38.45
2018-07-20T00:59:10.539Z,38.55
2018-07-20T01:00:10.528Z,38.55
2018-07-20T01:01:10.516Z,38.55
2018-07-20T01:02:10.511Z,38.55
2018-07-20T01:03:10.504Z,38.75
2018-07-20T01:04:10.560Z,38.75
2018-07-20T01:05:10.487Z,38.75
2018-07-20T01:06:10.450Z,38.65
2018-07-20T01:07:10.447Z,38.45
2018-07-20T01:08:10.545Z,38.45
2018-07-20T01:09:10.847Z,38.65
2018-07-20T01:10:10.555Z,38.75
2018-07-20T01:11:10.516Z,38.76
2018-07-20T01:12:10.403Z,38.57
2018-07-20T01:13:10.505Z,38.65
2018-07-20T01:14:10.366Z,38.76
2018-07-20T01:15:10.501Z,38.94
2018-07-20T01:16:10.472Z,39.14
2018-07-20T01:17:10.360Z,39.04
2018-07-20T01:18:10.323Z,39.16
2018-07-20T01:19:10.311Z,39.16
2018-07-20T01:20:10.502Z,38.94
2018-07-20T01:21:10.358Z,38.96
2018-07-20T01:22:10.280Z,39.06
2018-07-20T01:23:10.292Z,38.86
2018-07-20T01:24:10.327Z,38.94
2018-07-20T01:25:10.275Z,38.96
2018-07-20T01:26:10.252Z,38.35
2018-07-20T01:27:10.240Z,38.96
2018-07-20T01:28:10.330Z,38.96
2018-07-20T01:29:10.211Z,38.94
2018-07-20T01:30:10.222Z,38.94
2018-07-20T01:31:10.215Z,38.86
2018-07-20T01:32:10.188Z,39.26
2018-07-20T01:33:10.283Z,39.06
2018-07-20T01:34:10.255Z,38.86
2018-07-20T01:35:10.170Z,39.34
2018-07-20T01:36:10.212Z,39.26
2018-07-20T01:37:10.245Z,38.67
2018-07-20T01:38:10.121Z,38.76
2018-07-20T01:39:10.210Z,38.86
2018-07-20T01:40:10.198Z,38.86
2018-07-20T01:41:10.109Z,38.57
2018-07-20T01:42:10.074Z,38.67
2018-07-20T01:43:10.182Z,38.67
2018-07-20T01:44:10.071Z,39.16
2018-07-20T01:45:10.178Z,38.47
2018-07-20T01:46:10.163Z,38.67
2018-07-20T01:47:10.033Z,39.06
2018-07-20T01:48:10.031Z,38.67
2018-07-20T01:49:10.112Z,38.76
2018-07-20T01:50:09.989Z,38.86
2018-07-20T01:51:10.066Z,39.06
2018-07-20T01:52:10.155Z,39.06
2018-07-20T01:53:09.978Z,39.46
2018-07-20T01:54:09.948Z,39.26
2018-07-20T01:55:10.047Z,39.16
2018-07-20T01:56:09.949Z,39.16
2018-07-20T01:57:10.030Z,39.46
2018-07-20T01:58:10.237Z,38.96
2018-07-20T01:59:09.957Z,39.56
2018-07-20T02:00:10.331Z,39.56
2018-07-20T02:01:10.038Z,38.86
2018-07-20T02:02:09.959Z,39.46
2018-07-20T02:03:09.845Z,39.46
2018-07-20T02:04:09.837Z,38.96
2018-07-20T02:05:09.840Z,38.96
2018-07-20T02:06:09.870Z,39.16
2018-07-20T02:07:09.822Z,39.06
2018-07-20T02:08:09.801Z,38.96
2018-07-20T02:09:09.919Z,38.96
2018-07-20T02:10:09.768Z,38.96
2018-07-20T02:11:09.869Z,38.96
2018-07-20T02:12:09.863Z,38.67
2018-07-20T02:13:09.861Z,38.86
2018-07-20T02:14:09.768Z,38.76
2018-07-20T02:15:09.733Z,38.68
2018-07-20T02:16:09.729Z,38.67
2018-07-20T02:17:09.771Z,38.67
2018-07-20T02:18:09.785Z,38.67
2018-07-20T02:19:09.699Z,38.86
2018-07-20T02:20:09.691Z,38.78
2018-07-20T02:21:09.676Z,38.68
2018-07-20T02:22:09.646Z,38.68
2018-07-20T02:23:09.651Z,38.78
2018-07-20T02:24:09.760Z,38.78
2018-07-20T02:25:09.609Z,38.78
2018-07-20T02:26:09.620Z,38.59
2018-07-20T02:27:09.674Z,38.78
2018-07-20T02:28:09.590Z,38.88
2018-07-20T02:29:09.567Z,39.77
2018-07-20T02:30:09.663Z,39.87
2018-07-20T02:31:09.677Z,39.87
2018-07-20T02:32:09.536Z,39.87
2018-07-20T02:33:09.563Z,39.87
2018-07-20T02:34:09.532Z,39.58
2018-07-20T02:35:09.507Z,39.58
2018-07-20T02:36:09.497Z,39.58
2018-07-20T02:37:10.754Z,39.77
2018-07-20T02:38:09.471Z,39.67
2018-07-20T02:39:09.600Z,39.48
2018-07-20T02:40:09.530Z,39.48
2018-07-20T02:41:09.469Z,39.48
2018-07-20T02:42:09.456Z,39.58
2018-07-20T02:43:09.420Z,40.07
2018-07-20T02:44:09.539Z,39.97
2018-07-20T02:45:09.407Z,39.97
2018-07-20T02:46:09.661Z,39.87
2018-07-20T02:47:09.390Z,40.17
2018-07-20T02:48:09.388Z,40.07
2018-07-20T02:49:09.471Z,40.17
2018-07-20T02:50:09.357Z,40.17
2018-07-20T02:51:09.454Z,39.87
2018-07-20T02:52:09.328Z,39.69
2018-07-20T02:53:09.434Z,40.07
2018-07-20T02:54:09.313Z,40.17
2018-07-20T02:55:09.295Z,40.17
2018-07-20T02:56:09.371Z,39.77
2018-07-20T02:57:09.277Z,39.48
2018-07-20T02:58:09.274Z,39.58
2018-07-20T02:59:09.276Z,39.37
2018-07-20T03:00:09.256Z,39.37
2018-07-20T03:01:09.245Z,39.58
2018-07-20T03:02:09.322Z,39.48
2018-07-20T03:03:09.309Z,39.58
2018-07-20T03:04:09.199Z,39.58
2018-07-20T03:05:09.208Z,39.58
2018-07-20T03:06:09.209Z,39.58
2018-07-20T03:07:09.551Z,39.48
2018-07-20T03:08:09.152Z,39.50
2018-07-20T03:09:09.205Z,39.79
2018-07-20T03:10:09.265Z,39.77
2018-07-20T03:11:09.195Z,39.77
2018-07-20T03:12:09.240Z,39.79
2018-07-20T03:13:09.101Z,39.67
2018-07-20T03:14:09.224Z,39.37
2018-07-20T03:15:09.208Z,39.50
2018-07-20T03:16:09.079Z,39.69
2018-07-20T03:17:09.210Z,39.50
2018-07-20T03:18:09.199Z,40.09
2018-07-20T03:19:09.161Z,39.50
2018-07-20T03:20:09.038Z,39.69
2018-07-20T03:21:09.139Z,39.99
2018-07-20T03:22:09.090Z,39.50
2018-07-20T03:23:09.142Z,39.40
2018-07-20T03:24:08.992Z,39.40
2018-07-20T03:25:09.077Z,39.50
2018-07-20T03:26:08.974Z,39.40
2018-07-20T03:27:08.966Z,39.40
2018-07-20T03:28:08.974Z,39.40
2018-07-20T03:29:08.929Z,39.40
2018-07-20T03:30:09.016Z,40.09
2018-07-20T03:31:08.927Z,40.09
2018-07-20T03:32:08.938Z,39.50
2018-07-20T03:33:09.095Z,39.40
2018-07-20T03:34:08.891Z,39.50
2018-07-20T03:35:08.879Z,40.09
2018-07-20T03:36:08.875Z,40.09
2018-07-20T03:37:08.861Z,39.89
2018-07-20T03:38:08.961Z,40.09
2018-07-20T03:39:08.828Z,40.09
2018-07-20T03:40:08.815Z,40.48
2018-07-20T03:41:08.830Z,40.39
2018-07-20T03:42:08.901Z,40.09
2018-07-20T03:43:08.798Z,40.58
2018-07-20T03:44:08.774Z,40.58
2018-07-20T03:45:08.758Z,40.68
2018-07-20T03:46:08.762Z,40.20
2018-07-20T03:47:08.769Z,40.48
2018-07-20T03:48:08.731Z,40.60
2018-07-20T03:49:08.734Z,40.58
2018-07-20T03:50:08.707Z,40.48
2018-07-20T03:51:08.807Z,40.50
2018-07-20T03:52:08.862Z,40.50
2018-07-20T03:53:08.680Z,40.50
2018-07-20T03:54:08.686Z,40.70
2018-07-20T03:55:08.650Z,40.50
2018-07-20T03:56:08.656Z,40.60
2018-07-20T03:57:08.654Z,40.50
2018-07-20T03:58:08.635Z,40.80
2018-07-20T03:59:08.652Z,40.48
2018-07-20T04:00:08.602Z,40.70
2018-07-20T04:01:08.594Z,40.70
2018-07-20T04:02:08.624Z,40.20
2018-07-20T04:03:08.585Z,40.80
2018-07-20T04:04:08.685Z,40.20
2018-07-20T04:05:08.651Z,40.20
2018-07-20T04:06:08.534Z,40.31
2018-07-20T04:07:08.547Z,40.31
2018-07-20T04:08:08.519Z,40.31
2018-07-20T04:09:08.520Z,40.31
2018-07-20T04:10:08.597Z,40.31
2018-07-20T04:11:08.494Z,40.31
2018-07-20T04:12:08.627Z,40.31
2018-07-20T04:13:08.572Z,40.31
2018-07-20T04:14:08.462Z,40.31
2018-07-20T04:15:08.463Z,40.20
2018-07-20T04:16:08.449Z,40.41
2018-07-20T04:17:08.437Z,40.70
2018-07-20T04:18:08.410Z,40.20
2018-07-20T04:19:08.393Z,40.31
2018-07-20T04:20:08.389Z,40.31
2018-07-20T04:21:08.393Z,40.31
2018-07-20T04:22:08.375Z,40.11
2018-07-20T04:23:08.521Z,40.31
2018-07-20T04:24:08.338Z,40.70
2018-07-20T04:25:08.466Z,40.70
2018-07-20T04:26:08.329Z,40.31
2018-07-20T04:27:08.323Z,40.01
2018-07-20T04:28:08.310Z,40.50
2018-07-20T04:29:08.290Z,40.70
2018-07-20T04:30:08.285Z,40.70
2018-07-20T04:31:08.264Z,40.70
2018-07-20T04:32:08.283Z,40.31
2018-07-20T04:33:08.255Z,40.80
2018-07-20T04:34:08.244Z,40.80
2018-07-20T04:35:08.255Z,40.31
2018-07-20T04:36:08.612Z,40.50
2018-07-20T04:37:08.215Z,40.20
2018-07-20T04:38:08.195Z,39.91
2018-07-20T04:39:08.204Z,40.20
2018-07-20T04:40:08.183Z,40.31
2018-07-20T04:41:08.163Z,40.50
2018-07-20T04:42:08.179Z,40.01
2018-07-20T04:43:08.259Z,40.70
2018-07-20T04:44:08.125Z,40.20
2018-07-20T04:45:08.111Z,40.90
2018-07-20T04:46:08.117Z,40.20
2018-07-20T04:47:08.108Z,40.31
2018-07-20T04:48:08.105Z,40.70
2018-07-20T04:49:08.180Z,40.70
2018-07-20T04:50:08.099Z,40.41
2018-07-20T04:51:08.121Z,40.41
2018-07-20T04:52:08.120Z,40.80
2018-07-20T04:53:08.306Z,40.11
2018-07-20T04:54:08.061Z,40.60
2018-07-20T04:55:08.072Z,40.01
2018-07-20T04:56:08.085Z,40.50
2018-07-20T04:57:08.005Z,40.03
2018-07-20T04:58:07.995Z,40.50
2018-07-20T04:59:07.994Z,40.70
2018-07-20T05:00:07.967Z,40.72
2018-07-20T05:01:07.977Z,40.01
2018-07-20T05:02:07.959Z,40.11
2018-07-20T05:03:07.941Z,40.50
2018-07-20T05:04:07.919Z,40.01
2018-07-20T05:05:07.924Z,39.91
2018-07-20T05:06:07.915Z,40.11
2018-07-20T05:07:07.878Z,39.91
2018-07-20T05:08:07.890Z,40.01
2018-07-20T05:09:10.877Z,40.11
2018-07-20T05:10:07.847Z,40.11
2018-07-20T05:11:07.833Z,40.01
2018-07-20T05:12:07.834Z,40.82
2018-07-20T05:13:07.849Z,40.70
2018-07-20T05:14:07.838Z,40.70
2018-07-20T05:15:07.886Z,40.50
2018-07-20T05:16:07.855Z,40.50
2018-07-20T05:17:07.806Z,40.52
2018-07-20T05:18:07.778Z,40.03
2018-07-20T05:19:07.774Z,40.52
2018-07-20T05:20:08.982Z,40.01
2018-07-20T05:21:07.737Z,40.20
2018-07-20T05:22:07.722Z,40.11
2018-07-20T05:23:07.721Z,39.91
2018-07-20T05:24:07.745Z,40.01
2018-07-20T05:25:07.683Z,40.11
2018-07-20T05:26:07.676Z,40.70
2018-07-20T05:27:07.792Z,39.91
2018-07-20T05:28:07.672Z,40.11
2018-07-20T05:29:07.665Z,40.01
2018-07-20T05:30:07.644Z,40.01
2018-07-20T05:31:07.647Z,40.01
2018-07-20T05:32:07.993Z,40.50
2018-07-20T05:33:07.625Z,40.01
2018-07-20T05:34:07.737Z,40.11
2018-07-20T05:35:07.578Z,40.01
2018-07-20T05:36:07.584Z,40.50
2018-07-20T05:37:07.689Z,40.11
2018-07-20T05:38:07.788Z,40.01
2018-07-20T05:39:07.556Z,40.11
2018-07-20T05:40:07.670Z,39.91
2018-07-20T05:41:07.511Z,40.01
2018-07-20T05:42:07.515Z,40.01
2018-07-20T05:43:07.643Z,40.11
2018-07-20T05:44:07.648Z,40.11
2018-07-20T05:45:07.477Z,40.01
2018-07-20T05:46:07.622Z,40.01
2018-07-20T05:47:07.588Z,40.11
2018-07-20T05:48:07.727Z,40.50
2018-07-20T05:49:07.463Z,40.01
2018-07-20T05:50:07.529Z,40.60
2018-07-20T05:51:07.409Z,39.91
2018-07-20T05:52:07.503Z,40.11
2018-07-20T05:53:07.420Z,39.91
2018-07-20T05:54:07.444Z,40.11
2018-07-20T05:55:08.125Z,40.11
2018-07-20T05:56:07.361Z,40.11
2018-07-20T05:57:07.346Z,40.60
2018-07-20T05:58:07.407Z,40.60
2018-07-20T05:59:07.907Z,40.11
2018-07-20T06:00:07.450Z,40.11
2018-07-20T06:01:07.450Z,40.11
2018-07-20T06:02:07.304Z,40.11
2018-07-20T06:03:07.292Z,40.01
2018-07-20T06:04:07.452Z,40.70
2018-07-20T06:05:07.268Z,40.60
2018-07-20T06:06:17.828Z,40.50
2018-07-20T06:07:07.347Z,40.11
2018-07-20T06:08:07.313Z,40.50
2018-07-20T06:09:07.225Z,40.01
2018-07-20T06:10:07.334Z,40.11
2018-07-20T06:11:07.205Z,40.11
2018-07-20T06:12:07.364Z,40.11
2018-07-20T06:13:07.201Z,40.11
2018-07-20T06:14:07.218Z,40.11
2018-07-20T06:15:07.270Z,40.50
2018-07-20T06:16:07.153Z,40.11
2018-07-20T06:17:07.252Z,40.11
2018-07-20T06:18:07.209Z,40.11
2018-07-20T06:19:07.185Z,40.11
2018-07-20T06:20:07.239Z,40.31
2018-07-20T06:21:07.247Z,39.91
2018-07-20T06:22:07.281Z,40.11
2018-07-20T06:23:07.185Z,40.11
2018-07-20T06:24:07.084Z,40.80
2018-07-20T06:25:07.139Z,39.91
2018-07-20T06:26:07.047Z,40.31
2018-07-20T06:27:08.026Z,40.11
2018-07-20T06:28:07.035Z,40.11
2018-07-20T06:29:07.143Z,40.20
2018-07-20T06:30:07.004Z,40.20
2018-07-20T06:31:06.985Z,40.01
2018-07-20T06:32:06.979Z,40.31
2018-07-20T06:33:07.134Z,39.91
2018-07-20T06:34:07.103Z,40.31
2018-07-20T06:35:06.955Z,40.20
2018-07-20T06:36:07.066Z,39.91
2018-07-20T06:37:07.038Z,40.11
2018-07-20T06:38:07.022Z,40.11
2018-07-20T06:39:07.011Z,39.91
2018-07-20T06:40:06.902Z,40.31
2018-07-20T06:41:06.937Z,40.20
2018-07-20T06:42:06.935Z,40.41
2018-07-20T06:43:06.978Z,40.11
2018-07-20T06:44:06.990Z,40.31
2018-07-20T06:45:06.903Z,40.20
2018-07-20T06:46:06.823Z,40.11
2018-07-20T06:47:06.896Z,40.11
2018-07-20T06:48:06.898Z,40.20
2018-07-20T06:49:06.825Z,39.89
2018-07-20T06:50:06.897Z,40.11
2018-07-20T06:51:06.868Z,40.20
2018-07-20T06:52:06.871Z,40.11
2018-07-20T06:53:06.830Z,40.09
2018-07-20T06:54:06.919Z,40.11
2018-07-20T06:55:06.867Z,40.11
2018-07-20T06:56:06.835Z,40.01
2018-07-20T06:57:06.845Z,40.09
2018-07-20T06:58:06.815Z,40.01
2018-07-20T06:59:06.857Z,40.01
2018-07-20T07:00:06.778Z,39.99
2018-07-20T07:01:06.687Z,40.50
2018-07-20T07:02:08.124Z,39.99
2018-07-20T07:03:06.709Z,40.09
2018-07-20T07:04:06.827Z,40.68
2018-07-20T07:05:06.634Z,39.99
2018-07-20T07:06:06.749Z,40.48
2018-07-20T07:07:06.703Z,39.99
2018-07-20T07:08:06.603Z,40.68
2018-07-20T07:09:06.724Z,40.58
2018-07-20T07:10:06.698Z,40.29
2018-07-20T07:11:06.659Z,40.68
2018-07-20T07:12:06.671Z,40.48
2018-07-20T07:13:06.642Z,40.68
2018-07-20T07:14:06.613Z,39.99
2018-07-20T07:15:06.716Z,40.29
2018-07-20T07:16:06.636Z,40.09
2018-07-20T07:17:06.502Z,40.09
2018-07-20T07:18:06.503Z,40.29
2018-07-20T07:19:06.484Z,40.29
2018-07-20T07:20:06.618Z,40.19
2018-07-20T07:21:06.499Z,40.58
2018-07-20T07:22:06.654Z,40.19
2018-07-20T07:23:06.560Z,40.48
2018-07-20T07:24:06.608Z,40.58
2018-07-20T07:25:06.436Z,40.58
2018-07-20T07:26:06.553Z,40.58
2018-07-20T07:27:07.328Z,40.48
2018-07-20T07:28:06.620Z,40.48
2018-07-20T07:29:06.531Z,40.19
2018-07-20T07:30:06.508Z,40.48
2018-07-20T07:31:06.349Z,40.19
2018-07-20T07:32:06.458Z,39.99
2018-07-20T07:33:06.442Z,40.48
2018-07-20T07:34:06.318Z,40.09
2018-07-20T07:35:06.410Z,40.29
2018-07-20T07:36:06.304Z,40.47
2018-07-20T07:37:06.370Z,40.47
2018-07-20T07:38:06.356Z,40.09
2018-07-20T07:39:06.261Z,40.56
2018-07-20T07:40:06.266Z,39.59
2018-07-20T07:41:06.272Z,40.48
2018-07-20T07:42:06.417Z,39.50
2018-07-20T07:43:06.356Z,39.67
2018-07-20T07:44:06.862Z,40.17
2018-07-20T07:45:06.338Z,39.37
2018-07-20T07:46:06.321Z,40.09
2018-07-20T07:47:06.605Z,39.48
2018-07-20T07:48:06.278Z,40.17
2018-07-20T07:49:06.302Z,39.59
2018-07-20T07:50:06.284Z,40.07
2018-07-20T07:51:06.264Z,39.48
2018-07-20T07:52:06.291Z,39.77
2018-07-20T07:53:06.144Z,39.50
2018-07-20T07:54:06.107Z,40.07
2018-07-20T07:55:06.108Z,39.37
2018-07-20T07:56:06.232Z,39.29
2018-07-20T07:57:06.269Z,39.48
2018-07-20T07:58:06.067Z,39.37
2018-07-20T07:59:06.739Z,39.67
2018-07-20T08:00:06.275Z,39.67
2018-07-20T08:01:06.182Z,39.37
2018-07-20T08:02:06.160Z,39.08
2018-07-20T08:03:06.110Z,39.28
2018-07-20T08:04:06.093Z,39.29
2018-07-20T08:05:06.148Z,39.77
2018-07-20T08:06:06.004Z,39.48
2018-07-20T08:07:05.980Z,39.37
2018-07-20T08:08:06.061Z,39.67
2018-07-20T08:09:06.077Z,39.77
2018-07-20T08:10:06.243Z,39.37
2018-07-20T08:11:06.068Z,39.37
2018-07-20T08:12:05.938Z,39.37
2018-07-20T08:13:06.039Z,39.48
2018-07-20T08:14:06.046Z,39.40
2018-07-20T08:15:06.796Z,39.59
2018-07-20T08:16:05.910Z,39.87
2018-07-20T08:17:05.863Z,39.37
2018-07-20T08:18:05.993Z,39.48
2018-07-20T08:19:05.867Z,39.87
2018-07-20T08:20:05.968Z,39.48
2018-07-20T08:21:05.988Z,39.87
2018-07-20T08:22:05.926Z,40.07
2018-07-20T08:23:05.939Z,39.48
2018-07-20T08:24:05.907Z,40.07
2018-07-20T08:25:06.447Z,40.17
2018-07-20T08:26:05.787Z,40.29
2018-07-20T08:27:05.762Z,40.19
2018-07-20T08:28:05.900Z,40.07
2018-07-20T08:29:06.542Z,40.17
2018-07-20T08:30:05.883Z,40.07
2018-07-20T08:31:05.854Z,40.26
2018-07-20T08:32:05.809Z,40.09
2018-07-20T08:33:05.811Z,39.97
2018-07-20T08:34:06.218Z,39.99
2018-07-20T08:35:05.802Z,40.17
2018-07-20T08:36:05.718Z,39.97
2018-07-20T08:37:05.811Z,39.97
2018-07-20T08:38:05.719Z,39.97
2018-07-20T08:39:05.624Z,40.07
2018-07-20T08:40:05.783Z,40.07
2018-07-20T08:41:05.648Z,40.47
2018-07-20T08:42:05.596Z,39.97
2018-07-20T08:43:05.690Z,40.56
2018-07-20T08:44:05.810Z,40.56
2018-07-20T08:45:05.770Z,40.56
2018-07-20T08:46:05.942Z,40.56
2018-07-20T08:47:05.731Z,40.47
2018-07-20T08:48:05.619Z,40.47
2018-07-20T08:49:05.704Z,39.99
2018-07-20T08:50:05.521Z,40.07
2018-07-20T08:51:05.661Z,40.56
2018-07-20T08:52:05.610Z,40.17
2018-07-20T08:53:05.497Z,40.56
2018-07-20T08:54:05.707Z,39.99
2018-07-20T08:55:05.504Z,39.97
2018-07-20T08:56:05.594Z,40.07
2018-07-20T08:57:05.594Z,39.87
2018-07-20T08:58:05.439Z,39.87
2018-07-20T08:59:05.549Z,39.97
2018-07-20T09:00:05.654Z,39.99
2018-07-20T09:01:05.502Z,39.87
2018-07-20T09:02:05.559Z,40.26
2018-07-20T09:03:05.373Z,39.89
2018-07-20T09:04:05.478Z,39.87
2018-07-20T09:05:05.508Z,40.07
2018-07-20T09:06:05.374Z,40.37
2018-07-20T09:07:05.802Z,39.48
2018-07-20T09:08:05.447Z,39.37
2018-07-20T09:09:05.320Z,39.58
2018-07-20T09:10:05.323Z,39.50
2018-07-20T09:11:06.618Z,39.37
2018-07-20T09:12:05.407Z,39.58
2018-07-20T09:13:05.466Z,39.37
2018-07-20T09:14:05.254Z,40.07
2018-07-20T09:15:05.335Z,39.37
2018-07-20T09:16:05.255Z,39.77
2018-07-20T09:17:05.379Z,39.48
2018-07-20T09:18:05.417Z,39.67
2018-07-20T09:19:05.343Z,39.67
2018-07-20T09:20:05.365Z,39.77
2018-07-20T09:21:05.368Z,39.77
2018-07-20T09:22:05.350Z,39.67
2018-07-20T09:23:05.317Z,39.37
2018-07-20T09:24:05.330Z,39.50
2018-07-20T09:25:05.244Z,39.37
2018-07-20T09:26:05.300Z,39.58
2018-07-20T09:27:05.142Z,39.58
2018-07-20T09:28:05.257Z,39.67
2018-07-20T09:29:05.234Z,39.58
2018-07-20T09:30:05.784Z,39.87
2018-07-20T09:31:05.264Z,39.58
2018-07-20T09:32:05.183Z,39.77
2018-07-20T09:33:05.172Z,39.77
2018-07-20T09:34:05.194Z,39.48
2018-07-20T09:35:05.120Z,39.58
2018-07-20T09:36:05.140Z,39.77
2018-07-20T09:37:05.224Z,40.17
2018-07-20T09:38:05.008Z,40.07
2018-07-20T09:39:05.021Z,40.17
2018-07-20T09:40:06.130Z,40.17
2018-07-20T09:41:06.099Z,40.07
2018-07-20T09:42:09.158Z,39.67
2018-07-20T09:43:05.119Z,39.77
2018-07-20T09:44:04.945Z,39.67
2018-07-20T09:45:05.103Z,39.87
2018-07-20T09:46:05.111Z,39.87
2018-07-20T09:47:06.506Z,40.26
2018-07-20T09:48:05.032Z,39.97
2018-07-20T09:49:05.695Z,40.17
2018-07-20T09:50:04.958Z,40.47
2018-07-20T09:51:05.365Z,39.97
2018-07-20T09:52:04.930Z,39.77
2018-07-20T09:53:04.972Z,40.07
2018-07-20T09:54:04.834Z,39.37
2018-07-20T09:55:04.936Z,40.07
2018-07-20T09:56:04.961Z,39.67
2018-07-20T09:57:04.839Z,39.67
2018-07-20T09:58:04.934Z,39.67
2018-07-20T09:59:04.884Z,39.58
2018-07-20T10:00:05.000Z,39.28
2018-07-20T10:01:04.845Z,39.58
2018-07-20T10:02:05.640Z,39.28
2018-07-20T10:03:04.736Z,39.77
2018-07-20T10:04:04.738Z,39.87
2018-07-20T10:05:04.876Z,39.18
2018-07-20T10:06:04.845Z,39.87
2018-07-20T10:07:04.805Z,39.18
2018-07-20T10:08:04.822Z,39.85
2018-07-20T10:09:04.804Z,38.96
2018-07-20T10:10:04.814Z,39.65
2018-07-20T10:11:04.673Z,38.88
2018-07-20T10:12:05.117Z,38.86
2018-07-20T10:13:04.642Z,38.76
2018-07-20T10:14:04.733Z,38.67
2018-07-20T10:15:04.763Z,38.57
2018-07-20T10:16:04.760Z,38.67
2018-07-20T10:17:04.729Z,38.76
2018-07-20T10:18:04.732Z,38.76
2018-07-20T10:19:04.618Z,38.76
2018-07-20T10:20:06.266Z,38.67
2018-07-20T10:21:04.648Z,38.67
2018-07-20T10:22:04.738Z,38.76
2018-07-20T10:23:07.036Z,38.76
2018-07-20T10:24:04.514Z,38.67
2018-07-20T10:25:04.677Z,38.67
2018-07-20T10:26:04.969Z,38.76
2018-07-20T10:27:04.637Z,38.86
2018-07-20T10:28:04.479Z,38.96
2018-07-20T10:29:04.605Z,39.06
2018-07-20T10:30:04.466Z,38.96
2018-07-20T10:31:04.559Z,38.86
2018-07-20T10:32:04.527Z,38.86
2018-07-20T10:33:04.570Z,38.96
2018-07-20T10:34:04.406Z,38.96
2018-07-20T10:35:04.520Z,39.06
2018-07-20T10:36:04.500Z,38.96
2018-07-20T10:37:04.551Z,39.06
2018-07-20T10:38:04.379Z,38.96
2018-07-20T10:39:04.356Z,38.96
2018-07-20T10:40:04.346Z,38.96
2018-07-20T10:41:04.469Z,39.06
2018-07-20T10:42:04.464Z,38.86
2018-07-20T10:43:04.362Z,39.06
2018-07-20T10:44:04.436Z,39.16
2018-07-20T10:45:04.461Z,39.46
2018-07-20T10:46:04.430Z,39.16
2018-07-20T10:47:04.292Z,39.06
2018-07-20T10:48:04.292Z,39.46
2018-07-20T10:49:04.380Z,38.94
2018-07-20T10:50:04.366Z,39.36
2018-07-20T10:51:03.242Z,39.16
2018-07-20T10:52:04.245Z,39.14
2018-07-20T10:53:04.328Z,39.16
2018-07-20T10:54:04.369Z,39.36
2018-07-20T10:55:04.271Z,39.14
2018-07-20T10:56:04.224Z,39.43
2018-07-20T10:57:05.611Z,39.34
2018-07-20T10:58:04.232Z,39.36
2018-07-20T10:59:04.270Z,38.94
2018-07-20T11:00:04.129Z,39.04
2018-07-20T11:01:04.124Z,39.06
2018-07-20T11:02:04.139Z,39.14
2018-07-20T11:03:04.235Z,39.06
2018-07-20T11:04:04.278Z,39.54
2018-07-20T11:05:04.163Z,39.24
2018-07-20T11:06:04.232Z,39.24
2018-07-20T11:07:04.215Z,39.43
2018-07-20T11:08:04.199Z,39.54
2018-07-20T11:09:04.155Z,39.43
2018-07-20T11:10:04.203Z,39.34
2018-07-20T11:11:04.167Z,39.34
2018-07-20T11:12:06.938Z,39.34
2018-07-20T11:13:04.171Z,39.34
2018-07-20T11:14:03.984Z,39.14
2018-07-20T11:15:04.127Z,39.24
2018-07-20T11:16:03.966Z,39.04
2018-07-20T11:17:04.082Z,39.14
2018-07-20T11:18:04.145Z,39.24
2018-07-20T11:19:03.959Z,38.94
2018-07-20T11:20:04.003Z,38.94
2018-07-20T11:21:04.014Z,39.04
2018-07-20T11:22:04.032Z,39.24
2018-07-20T11:23:12.339Z,38.55
2018-07-20T11:24:03.917Z,39.04
2018-07-20T11:25:16.152Z,38.84
2018-07-20T11:26:05.417Z,38.82
2018-07-20T11:27:03.862Z,38.65
2018-07-20T11:28:03.967Z,38.55
2018-07-20T11:29:03.953Z,38.45
2018-07-20T11:30:03.949Z,38.35
2018-07-20T11:31:03.938Z,38.65
2018-07-20T11:32:03.825Z,38.53
2018-07-20T11:33:05.628Z,38.55
2018-07-20T11:34:03.919Z,38.65
2018-07-20T11:35:03.971Z,38.63
2018-07-20T11:36:03.770Z,39.22
2018-07-20T11:37:03.897Z,39.03
2018-07-20T11:38:03.850Z,38.82
2018-07-20T11:39:03.739Z,38.73
2018-07-20T11:40:03.919Z,38.92
2018-07-20T11:41:03.927Z,38.92
2018-07-20T11:42:03.823Z,38.92
2018-07-20T11:43:04.185Z,39.12
2018-07-20T11:44:05.124Z,38.73
2018-07-20T11:45:03.788Z,39.12
2018-07-20T11:46:03.808Z,38.82
2018-07-20T11:47:03.789Z,38.82
2018-07-20T11:48:03.726Z,38.82
2018-07-20T11:49:06.373Z,38.73
2018-07-20T11:50:03.684Z,38.73
2018-07-20T11:51:03.795Z,38.73
2018-07-20T11:52:03.744Z,38.73
2018-07-20T11:53:03.696Z,38.43
2018-07-20T11:54:06.711Z,38.63
2018-07-20T11:55:03.582Z,38.81
2018-07-20T11:56:03.734Z,38.33
2018-07-20T11:57:03.685Z,38.41
2018-07-20T11:58:03.540Z,38.31
2018-07-20T11:59:03.643Z,38.21
2018-07-20T12:00:03.517Z,38.81
2018-07-20T12:01:03.626Z,38.21
2018-07-20T12:02:04.083Z,38.31
2018-07-20T12:03:03.574Z,38.61
2018-07-20T12:04:03.626Z,38.31
2018-07-20T12:05:03.777Z,38.12
2018-07-20T12:06:03.447Z,38.12
2018-07-20T12:07:03.431Z,38.02
2018-07-20T12:08:03.445Z,38.61
2018-07-20T12:09:03.478Z,38.02
2018-07-20T12:10:03.547Z,38.21
2018-07-20T12:11:03.395Z,37.62
2018-07-20T12:12:03.518Z,37.62
2018-07-20T12:13:03.477Z,37.62
2018-07-20T12:14:03.369Z,37.92
2018-07-20T12:15:03.364Z,38.12
2018-07-20T12:16:03.435Z,37.82
2018-07-20T12:17:03.516Z,37.90
2018-07-20T12:18:03.501Z,37.60
2018-07-20T12:19:03.327Z,38.10
2018-07-20T12:20:03.400Z,38.20
2018-07-20T12:21:03.430Z,37.90
2018-07-20T12:22:03.286Z,37.60
2018-07-20T12:23:03.409Z,37.51
2018-07-20T12:24:03.378Z,37.90
2018-07-20T12:25:03.253Z,37.90
2018-07-20T12:26:03.357Z,37.90
2018-07-20T12:27:03.412Z,37.80
2018-07-20T12:28:03.329Z,38.10
2018-07-20T12:29:03.206Z,37.41
2018-07-20T12:30:04.761Z,37.21
2018-07-20T12:31:05.272Z,37.11
2018-07-20T12:32:03.352Z,37.09
2018-07-20T12:33:05.067Z,37.11
2018-07-20T12:34:08.472Z,37.80
2018-07-20T12:35:03.267Z,37.41
2018-07-20T12:36:03.264Z,37.21
2018-07-20T12:37:03.262Z,37.01
2018-07-20T12:38:03.211Z,37.30
2018-07-20T12:39:03.283Z,37.80
2018-07-20T12:40:03.156Z,37.70
2018-07-20T12:41:04.208Z,37.51
2018-07-20T12:42:03.386Z,37.68
2018-07-20T12:43:03.226Z,37.49
2018-07-20T12:44:03.166Z,37.68
2018-07-20T12:45:03.265Z,37.59
2018-07-20T12:46:03.121Z,37.49
2018-07-20T12:47:03.193Z,37.29
2018-07-20T12:48:03.169Z,38.08
2018-07-20T12:49:03.186Z,38.08
2018-07-20T12:50:03.162Z,38.08
2018-07-20T12:51:02.983Z,37.78
2018-07-20T12:52:04.683Z,37.88